Time;durP1;ratioP1;P1;durP2;ratioP2;P2;SDS_P1;SDS_P2;PMS_P1;PMS_P2;Temp;Humidity;BMP_temperature;BMP_pressure;BME280_temperature;BME280_humidity;BME280_pressure;Samples;Min_cycle;Max_cycle;Signal;HPM_P1;HPM_P2
2023/04/23 00:00:12;;;;;;;;;;;14.40;99.90;;;;;;4996434;28;20193;-72
2023/04/23 00:02:43;;;;;;;;;;;14.40;99.90;;;;;;4998045;28;19929;-72
2023/04/23 00:05:11;;;;;;;;;;;14.40;99.90;;;;;;5004741;28;19969;-72
2023/04/23 00:07:38;;;;;;;;;;;14.40;99.90;;;;;;4996723;28;19925;-72
2023/04/23 00:10:07;;;;;;;;;;;14.30;99.90;;;;;;4998344;28;20060;-72
2023/04/23 00:12:35;;;;;;;;;;;14.30;99.90;;;;;;5001822;28;19929;-73
2023/04/23 00:15:02;;;;;;;;;;;14.30;99.90;;;;;;4997101;28;19932;-72
2023/04/23 00:17:30;;;;;;;;;;;14.30;99.90;;;;;;5003007;28;19926;-72
2023/04/23 00:19:57;;;;;;;;;;;14.30;99.90;;;;;;4996402;28;19933;-71
2023/04/23 00:22:24;;;;;;;;;;;14.30;99.90;;;;;;4999924;28;20052;-72
2023/04/23 00:24:51;;;;;;;;;;;14.30;99.90;;;;;;4986283;28;20466;-72
2023/04/23 00:27:19;;;;;;;;;;;14.30;99.90;;;;;;4997444;28;19972;-72
2023/04/23 00:29:46;;;;;;;;;;;14.20;99.90;;;;;;5000670;28;19937;-72
2023/04/23 00:32:14;;;;;;;;;;;14.20;99.90;;;;;;4985483;28;19929;-71
2023/04/23 00:34:42;;;;;;;;;;;14.20;99.90;;;;;;4998416;28;19932;-72
2023/04/23 00:37:09;;;;;;;;;;;14.20;99.90;;;;;;4992536;28;19937;-72
2023/04/23 00:39:37;;;;;;;;;;;14.20;99.90;;;;;;4995402;28;20375;-72
2023/04/23 00:42:10;;;;;;;;;;;14.20;99.90;;;;;;4998564;28;20035;-72
2023/04/23 00:44:37;;;;;;;;;;;14.10;99.90;;;;;;5001763;28;20399;-72
2023/04/23 00:47:05;;;;;;;;;;;14.10;99.90;;;;;;4990576;28;19976;-72
2023/04/23 00:49:32;;;;;;;;;;;14.10;99.90;;;;;;4998776;28;19933;-71
2023/04/23 00:52:01;;;;;;;;;;;14.10;99.90;;;;;;5001636;28;19929;-72
2023/04/23 00:54:28;;;;;;;;;;;14.10;99.90;;;;;;4987340;28;19929;-72
2023/04/23 00:56:56;;;;;;;;;;;14.10;99.90;;;;;;5001740;28;19929;-72
2023/04/23 00:59:23;;;;;;;;;;;14.10;99.90;;;;;;4995652;28;19925;-72
2023/04/23 01:01:50;;;;;;;;;;;14.10;99.90;;;;;;4985706;28;19937;-72
2023/04/23 01:04:21;;;;;;;;;;;14.10;99.90;;;;;;4994089;28;19936;-72
2023/04/23 01:06:49;;;;;;;;;;;14.10;99.90;;;;;;4999079;28;19925;-72
2023/04/23 01:09:17;;;;;;;;;;;14.00;99.90;;;;;;5000250;28;19984;-71
2023/04/23 01:11:44;;;;;;;;;;;14.00;99.90;;;;;;5000387;28;19939;-72
2023/04/23 01:14:11;;;;;;;;;;;14.00;99.90;;;;;;5000072;28;20004;-72
2023/04/23 01:16:39;;;;;;;;;;;14.00;99.90;;;;;;4996378;28;19980;-72
2023/04/23 01:19:07;;;;;;;;;;;14.00;99.90;;;;;;5000414;28;20597;-72
2023/04/23 01:21:35;;;;;;;;;;;14.00;99.90;;;;;;5000799;28;19933;-72
2023/04/23 01:24:03;;;;;;;;;;;13.90;99.90;;;;;;4997503;28;19929;-72
2023/04/23 01:26:30;;;;;;;;;;;14.00;99.90;;;;;;4998499;28;19926;-72
2023/04/23 01:28:57;;;;;;;;;;;14.00;99.90;;;;;;4999319;28;20344;-71
2023/04/23 01:31:24;;;;;;;;;;;13.90;99.90;;;;;;4997683;28;19934;-72
2023/04/23 01:33:51;;;;;;;;;;;13.90;99.90;;;;;;4982859;28;20337;-71
2023/04/23 01:36:19;;;;;;;;;;;13.90;99.90;;;;;;4999767;28;19998;-72
2023/04/23 01:38:47;;;;;;;;;;;13.90;99.90;;;;;;5001156;28;19926;-71
2023/04/23 01:41:15;;;;;;;;;;;13.80;99.90;;;;;;4980898;28;19976;-71
2023/04/23 01:43:42;;;;;;;;;;;13.80;99.90;;;;;;4999745;28;20007;-71
2023/04/23 01:46:09;;;;;;;;;;;13.80;99.90;;;;;;4998211;28;20083;-72
2023/04/23 01:48:36;;;;;;;;;;;13.80;99.90;;;;;;4981051;28;20027;-72
2023/04/23 01:51:03;;;;;;;;;;;13.80;99.90;;;;;;5000045;28;20041;-71
2023/04/23 01:53:30;;;;;;;;;;;13.80;99.90;;;;;;5001057;28;20007;-71
2023/04/23 01:55:57;;;;;;;;;;;13.70;99.90;;;;;;4981791;28;19934;-72
2023/04/23 01:58:25;;;;;;;;;;;13.70;99.90;;;;;;4984207;28;20391;-72
2023/04/23 02:00:53;;;;;;;;;;;13.70;99.90;;;;;;5001599;28;20383;-72
2023/04/23 02:03:20;;;;;;;;;;;13.70;99.90;;;;;;4994129;28;20011;-72
2023/04/23 02:05:48;;;;;;;;;;;13.70;99.90;;;;;;5002100;28;19926;-72
2023/04/23 02:08:15;;;;;;;;;;;13.70;99.90;;;;;;4980932;28;19932;-72
2023/04/23 02:10:42;;;;;;;;;;;13.70;99.90;;;;;;4997676;28;19949;-72
2023/04/23 02:13:09;;;;;;;;;;;13.70;99.90;;;;;;4985011;28;19925;-72
2023/04/23 02:15:37;;;;;;;;;;;13.70;99.90;;;;;;4997943;28;19933;-72
2023/04/23 02:18:05;;;;;;;;;;;13.60;99.90;;;;;;4983183;28;20377;-71
2023/04/23 02:20:32;;;;;;;;;;;13.60;99.90;;;;;;5001445;28;19932;-72
2023/04/23 02:22:59;;;;;;;;;;;13.60;99.90;;;;;;5004492;28;19972;-72
2023/04/23 02:25:26;;;;;;;;;;;13.60;99.90;;;;;;4985009;28;19934;-72
2023/04/23 02:27:52;;;;;;;;;;;13.60;99.90;;;;;;5001861;28;19968;-72
2023/04/23 02:30:20;;;;;;;;;;;13.60;99.90;;;;;;4985132;28;20323;-72
2023/04/23 02:32:48;;;;;;;;;;;13.50;99.90;;;;;;4985983;28;20487;-72
2023/04/23 02:35:15;;;;;;;;;;;13.50;99.90;;;;;;5002481;28;19968;-72
2023/04/23 02:37:42;;;;;;;;;;;13.50;99.90;;;;;;5008711;28;19934;-72
2023/04/23 02:40:09;;;;;;;;;;;13.50;99.90;;;;;;4988978;28;20125;-72
2023/04/23 02:42:36;;;;;;;;;;;13.50;99.90;;;;;;5000553;28;20315;-72
2023/04/23 02:45:03;;;;;;;;;;;13.50;99.90;;;;;;4993844;28;20414;-72
2023/04/23 02:47:30;;;;;;;;;;;13.50;99.90;;;;;;5002916;28;19976;-72
2023/04/23 02:50:01;;;;;;;;;;;13.50;99.90;;;;;;4992627;28;20395;-72
2023/04/23 02:52:28;;;;;;;;;;;13.40;99.90;;;;;;4998566;28;19934;-72
2023/04/23 02:54:55;;;;;;;;;;;13.40;99.90;;;;;;5003076;28;20387;-72
2023/04/23 02:57:22;;;;;;;;;;;13.40;99.90;;;;;;4983199;28;19925;-72
2023/04/23 02:59:49;;;;;;;;;;;13.40;99.90;;;;;;4991258;28;19926;-72
2023/04/23 03:02:17;;;;;;;;;;;13.40;99.90;;;;;;4982062;28;19961;-72
2023/04/23 03:04:45;;;;;;;;;;;13.40;99.90;;;;;;5005549;28;20313;-72
2023/04/23 03:07:16;;;;;;;;;;;13.40;99.90;;;;;;5008201;28;20366;-72
2023/04/23 03:09:43;;;;;;;;;;;13.40;99.90;;;;;;4998377;28;20019;-72
2023/04/23 03:12:10;;;;;;;;;;;13.40;99.90;;;;;;5008203;28;19925;-72
2023/04/23 03:14:37;;;;;;;;;;;13.40;99.90;;;;;;4990665;28;19940;-72
2023/04/23 03:17:04;;;;;;;;;;;13.40;99.90;;;;;;4995586;28;20059;-72
2023/04/23 03:19:32;;;;;;;;;;;13.40;99.90;;;;;;4986387;28;19925;-72
2023/04/23 03:22:02;;;;;;;;;;;13.30;99.90;;;;;;5004079;28;19932;-72
2023/04/23 03:24:31;;;;;;;;;;;13.30;99.90;;;;;;4994472;28;19936;-72
2023/04/23 03:26:58;;;;;;;;;;;13.30;99.90;;;;;;4994431;28;20028;-72
2023/04/23 03:29:25;;;;;;;;;;;13.30;99.90;;;;;;4981505;28;19949;-72
2023/04/23 03:31:52;;;;;;;;;;;13.30;99.90;;;;;;4996423;28;19988;-72
2023/04/23 03:34:19;;;;;;;;;;;13.30;99.90;;;;;;4982454;28;19971;-72
2023/04/23 03:36:47;;;;;;;;;;;13.30;99.90;;;;;;5002706;28;20041;-72
2023/04/23 03:39:14;;;;;;;;;;;13.30;99.90;;;;;;5000297;28;19925;-72
2023/04/23 03:42:01;;;;;;;;;;;13.30;99.90;;;;;;4982785;28;19933;-72
2023/04/23 03:44:30;;;;;;;;;;;13.20;99.90;;;;;;4985231;28;19933;-72
2023/04/23 03:46:57;;;;;;;;;;;13.20;99.90;;;;;;4991673;28;19929;-72
2023/04/23 03:49:26;;;;;;;;;;;13.20;99.90;;;;;;5003543;28;19929;-72
2023/04/23 03:51:55;;;;;;;;;;;13.20;99.90;;;;;;4976221;28;19935;-72
2023/04/23 03:54:23;;;;;;;;;;;13.20;99.90;;;;;;4990445;28;19929;-72
2023/04/23 03:57:29;;;;;;;;;;;13.20;99.90;;;;;;4945947;28;19930;-71
2023/04/23 04:00:16;;;;;;;;;;;13.10;99.90;;;;;;4951140;28;19934;-72
2023/04/23 04:02:43;;;;;;;;;;;13.10;99.90;;;;;;4957720;28;19930;-72
2023/04/23 04:05:10;;;;;;;;;;;13.10;99.90;;;;;;4990657;28;20019;-72
2023/04/23 04:07:37;;;;;;;;;;;13.10;99.90;;;;;;4981617;28;19952;-71
2023/04/23 04:10:04;;;;;;;;;;;13.10;99.90;;;;;;5004646;28;19972;-72
2023/04/23 04:12:32;;;;;;;;;;;13.10;99.90;;;;;;4987917;28;19976;-72
2023/04/23 04:14:59;;;;;;;;;;;13.10;99.90;;;;;;5002904;28;19936;-72
2023/04/23 04:17:26;;;;;;;;;;;13.10;99.90;;;;;;5005698;28;19933;-72
2023/04/23 04:19:52;;;;;;;;;;;13.10;99.90;;;;;;5004725;28;20396;-72
2023/04/23 04:22:19;;;;;;;;;;;13.00;99.90;;;;;;5002880;28;19984;-71
2023/04/23 04:24:47;;;;;;;;;;;13.00;99.90;;;;;;5002250;28;19968;-72
2023/04/23 04:27:14;;;;;;;;;;;13.00;99.90;;;;;;4999634;28;20281;-72
2023/04/23 04:29:42;;;;;;;;;;;13.00;99.90;;;;;;4999266;28;19933;-72
2023/04/23 04:32:10;;;;;;;;;;;13.00;99.90;;;;;;4998647;28;19971;-72
2023/04/23 04:34:37;;;;;;;;;;;13.00;99.90;;;;;;4987638;28;19933;-73
2023/04/23 04:37:04;;;;;;;;;;;13.00;99.90;;;;;;4999679;28;19933;-72
2023/04/23 04:39:31;;;;;;;;;;;13.00;99.90;;;;;;4998183;28;19925;-72
2023/04/23 04:41:58;;;;;;;;;;;12.90;99.90;;;;;;5006302;28;19936;-72
2023/04/23 04:44:25;;;;;;;;;;;12.90;99.90;;;;;;4981687;28;19933;-71
2023/04/23 04:46:53;;;;;;;;;;;12.90;99.90;;;;;;5003154;28;19925;-72
2023/04/23 04:49:20;;;;;;;;;;;12.90;99.90;;;;;;4981583;28;20004;-72
2023/04/23 04:51:47;;;;;;;;;;;12.90;99.90;;;;;;5000994;28;19926;-72
2023/04/23 04:54:14;;;;;;;;;;;12.80;99.90;;;;;;4994408;28;19972;-71
2023/04/23 04:56:41;;;;;;;;;;;12.80;99.90;;;;;;5002150;28;20365;-71
2023/04/23 04:59:08;;;;;;;;;;;12.80;99.90;;;;;;4994570;28;20296;-72
2023/04/23 05:01:35;;;;;;;;;;;12.80;99.90;;;;;;5000906;28;19969;-72
2023/04/23 05:04:04;;;;;;;;;;;12.80;99.90;;;;;;4998157;28;19934;-72
2023/04/23 05:06:31;;;;;;;;;;;12.80;99.90;;;;;;4997102;28;20029;-71
2023/04/23 05:08:58;;;;;;;;;;;12.80;99.90;;;;;;4999046;28;20063;-72
2023/04/23 05:11:24;;;;;;;;;;;12.80;99.90;;;;;;4997725;28;19934;-72
2023/04/23 05:13:51;;;;;;;;;;;12.70;99.90;;;;;;4997089;28;19960;-72
2023/04/23 05:16:18;;;;;;;;;;;12.70;99.90;;;;;;4992214;28;19929;-72
2023/04/23 05:18:45;;;;;;;;;;;12.70;99.90;;;;;;4997410;28;20391;-71
2023/04/23 05:21:13;;;;;;;;;;;12.70;99.90;;;;;;4999915;28;19929;-72
2023/04/23 05:23:40;;;;;;;;;;;12.70;99.90;;;;;;4999870;28;19980;-72
2023/04/23 05:26:07;;;;;;;;;;;12.70;99.90;;;;;;4993969;28;20003;-72
2023/04/23 05:28:34;;;;;;;;;;;12.70;99.90;;;;;;4996008;28;19936;-72
2023/04/23 05:31:01;;;;;;;;;;;12.60;99.90;;;;;;4997485;28;19937;-71
2023/04/23 05:33:28;;;;;;;;;;;12.60;99.90;;;;;;4985769;28;19991;-71
2023/04/23 05:35:56;;;;;;;;;;;12.60;99.90;;;;;;4997454;28;19925;-72
2023/04/23 05:38:24;;;;;;;;;;;12.60;99.90;;;;;;4997088;28;19979;-72
2023/04/23 05:40:51;;;;;;;;;;;12.60;99.90;;;;;;4999921;28;20279;-72
2023/04/23 05:43:17;;;;;;;;;;;12.60;99.90;;;;;;5001600;28;20691;-72
2023/04/23 05:45:44;;;;;;;;;;;12.60;99.90;;;;;;4998488;28;19999;-72
2023/04/23 05:48:11;;;;;;;;;;;12.60;99.90;;;;;;4998505;28;19982;-72
2023/04/23 05:50:38;;;;;;;;;;;12.60;99.90;;;;;;4997512;28;19965;-72
2023/04/23 05:53:05;;;;;;;;;;;12.60;99.90;;;;;;4993839;28;19926;-72
2023/04/23 05:55:33;;;;;;;;;;;12.60;99.90;;;;;;5001249;28;19926;-72
2023/04/23 05:58:00;;;;;;;;;;;12.60;99.90;;;;;;5000823;28;20400;-72
2023/04/23 06:00:27;;;;;;;;;;;12.60;99.90;;;;;;4998801;28;20457;-72
2023/04/23 06:02:53;;;;;;;;;;;12.60;99.90;;;;;;4999020;28;19925;-72
2023/04/23 06:05:20;;;;;;;;;;;12.60;99.90;;;;;;5000940;28;19952;-72
2023/04/23 06:07:47;;;;;;;;;;;12.60;99.90;;;;;;4998878;28;19961;-72
2023/04/23 06:10:14;;;;;;;;;;;12.60;99.90;;;;;;5001839;28;19953;-72
2023/04/23 06:12:42;;;;;;;;;;;12.50;99.90;;;;;;5004482;28;19977;-72
2023/04/23 06:15:10;;;;;;;;;;;12.50;99.90;;;;;;4999894;28;19949;-72
2023/04/23 06:17:37;;;;;;;;;;;12.50;99.90;;;;;;4998243;28;19968;-72
2023/04/23 06:20:04;;;;;;;;;;;12.50;99.90;;;;;;5000044;28;20466;-72
2023/04/23 06:22:31;;;;;;;;;;;12.50;99.90;;;;;;5001467;28;19933;-71
2023/04/23 06:24:58;;;;;;;;;;;12.50;99.90;;;;;;4998413;28;19929;-72
2023/04/23 06:27:25;;;;;;;;;;;12.50;99.90;;;;;;4997072;28;20016;-72
2023/04/23 06:29:55;;;;;;;;;;;12.50;99.90;;;;;;4984624;28;19925;-72
2023/04/23 06:32:25;;;;;;;;;;;12.50;99.90;;;;;;5000214;28;19938;-71
2023/04/23 06:34:52;;;;;;;;;;;12.50;99.90;;;;;;5004214;28;19931;-72
2023/04/23 06:37:19;;;;;;;;;;;12.50;99.90;;;;;;5003237;28;20402;-72
2023/04/23 06:39:46;;;;;;;;;;;12.40;99.90;;;;;;4988097;28;19970;-72
2023/04/23 06:42:16;;;;;;;;;;;12.40;99.90;;;;;;5001688;28;19925;-72
2023/04/23 06:45:04;;;;;;;;;;;12.40;99.90;;;;;;4991981;28;19932;-72
2023/04/23 06:47:36;;;;;;;;;;;12.40;99.90;;;;;;4981935;28;20418;-74
2023/04/23 06:50:04;;;;;;;;;;;12.40;99.90;;;;;;5001857;28;19930;-73
2023/04/23 06:52:31;;;;;;;;;;;12.40;99.90;;;;;;4994601;28;19968;-73
2023/04/23 06:54:58;;;;;;;;;;;12.40;99.90;;;;;;5002341;28;19952;-73
2023/04/23 06:57:25;;;;;;;;;;;12.40;99.90;;;;;;4998704;28;19979;-74
2023/04/23 06:59:54;;;;;;;;;;;12.40;99.90;;;;;;5000825;28;19996;-73
2023/04/23 07:02:25;;;;;;;;;;;12.40;99.90;;;;;;4996996;28;19933;-73
2023/04/23 07:04:52;;;;;;;;;;;12.40;99.90;;;;;;5002879;28;20025;-74
2023/04/23 07:07:19;;;;;;;;;;;12.40;99.90;;;;;;5000572;28;19980;-73
2023/04/23 07:09:46;;;;;;;;;;;12.40;99.90;;;;;;5000110;28;20411;-74
2023/04/23 07:12:12;;;;;;;;;;;12.40;99.90;;;;;;5004573;28;19932;-73
2023/04/23 07:14:42;;;;;;;;;;;12.40;99.90;;;;;;4983373;28;19972;-73
2023/04/23 07:17:09;;;;;;;;;;;12.40;99.90;;;;;;5000525;28;19934;-74
2023/04/23 07:19:46;;;;;;;;;;;12.40;99.90;;;;;;4999788;28;20027;-74
2023/04/23 07:22:24;;;;;;;;;;;12.30;99.90;;;;;;5000603;28;20013;-75
2023/04/23 07:24:51;;;;;;;;;;;12.30;99.90;;;;;;4996550;28;19936;-74
2023/04/23 07:27:18;;;;;;;;;;;12.30;99.90;;;;;;4994300;28;19934;-72
2023/04/23 07:29:48;;;;;;;;;;;12.30;99.90;;;;;;4995153;28;20012;-74
2023/04/23 07:32:15;;;;;;;;;;;12.30;99.90;;;;;;4999085;28;20484;-73
2023/04/23 07:34:41;;;;;;;;;;;12.30;99.90;;;;;;4998211;28;19925;-72
2023/04/23 07:37:10;;;;;;;;;;;12.30;99.90;;;;;;4996002;28;20403;-73
2023/04/23 07:39:37;;;;;;;;;;;12.30;99.90;;;;;;5000945;28;19929;-76
2023/04/23 07:42:06;;;;;;;;;;;12.30;99.90;;;;;;5000851;28;19968;-72
2023/04/23 07:44:36;;;;;;;;;;;12.30;99.90;;;;;;4998766;28;19933;-73
2023/04/23 07:47:03;;;;;;;;;;;12.30;99.90;;;;;;4996781;28;19926;-73
2023/04/23 07:49:30;;;;;;;;;;;12.30;99.90;;;;;;4983499;28;19930;-73
2023/04/23 07:51:56;;;;;;;;;;;12.30;99.90;;;;;;4996272;28;19939;-73
2023/04/23 07:54:25;;;;;;;;;;;12.30;99.90;;;;;;5003582;28;19925;-73
2023/04/23 07:56:51;;;;;;;;;;;12.30;99.90;;;;;;5000671;28;19929;-73
2023/04/23 07:59:18;;;;;;;;;;;12.30;99.90;;;;;;4988958;28;19983;-75
2023/04/23 08:01:54;;;;;;;;;;;12.30;99.90;;;;;;4998855;28;19965;-75
2023/04/23 08:04:20;;;;;;;;;;;12.30;99.90;;;;;;4996657;28;19925;-74
2023/04/23 08:06:47;;;;;;;;;;;12.40;99.90;;;;;;4989325;28;19926;-75
2023/04/23 08:09:14;;;;;;;;;;;12.40;99.90;;;;;;5000552;28;19929;-73
2023/04/23 08:11:42;;;;;;;;;;;12.40;99.90;;;;;;4999843;28;19932;-72
2023/04/23 08:14:15;;;;;;;;;;;12.40;99.90;;;;;;5000656;28;19930;-74
2023/04/23 08:17:07;;;;;;;;;;;12.40;99.90;;;;;;4999402;28;20346;-73
2023/04/23 08:19:34;;;;;;;;;;;12.40;99.90;;;;;;4994277;28;19940;-73
2023/04/23 08:22:00;;;;;;;;;;;12.40;99.90;;;;;;4999934;28;19957;-73
2023/04/23 08:24:27;;;;;;;;;;;12.40;99.90;;;;;;4983913;28;19995;-73
2023/04/23 08:26:58;;;;;;;;;;;12.40;99.90;;;;;;4997047;28;20459;-75
2023/04/23 08:29:25;;;;;;;;;;;12.40;99.90;;;;;;5001972;28;19926;-73
2023/04/23 08:31:52;;;;;;;;;;;12.40;99.90;;;;;;4999336;28;21438;-73
2023/04/23 08:34:22;;;;;;;;;;;12.50;99.90;;;;;;4998857;28;20358;-74
2023/04/23 08:36:49;;;;;;;;;;;12.40;99.90;;;;;;4981342;28;19930;-74
2023/04/23 08:39:19;;;;;;;;;;;12.40;99.90;;;;;;4998318;28;19941;-73
2023/04/23 08:41:49;;;;;;;;;;;12.50;99.90;;;;;;5000545;28;19929;-74
2023/04/23 08:44:18;;;;;;;;;;;12.50;99.90;;;;;;4997655;28;20028;-73
2023/04/23 08:46:46;;;;;;;;;;;12.50;99.90;;;;;;4979679;28;19984;-73
2023/04/23 08:49:18;;;;;;;;;;;12.50;99.90;;;;;;4997626;28;19937;-74
2023/04/23 08:51:48;;;;;;;;;;;12.50;99.90;;;;;;4995754;28;19937;-74
2023/04/23 08:54:15;;;;;;;;;;;12.50;99.90;;;;;;4996075;28;19929;-74
2023/04/23 08:59:25;;;;;;;;;;;12.50;99.90;;;;;;4981043;28;19983;-73
2023/04/23 09:01:53;;;;;;;;;;;12.50;99.90;;;;;;4994807;28;20420;-74
2023/04/23 09:04:20;;;;;;;;;;;12.50;99.90;;;;;;4999024;28;19930;-75
2023/04/23 09:06:46;;;;;;;;;;;12.50;99.90;;;;;;4998831;28;20012;-75
2023/04/23 09:09:15;;;;;;;;;;;12.50;99.90;;;;;;4994935;28;19926;-75
2023/04/23 09:11:42;;;;;;;;;;;12.50;99.90;;;;;;4999954;28;19929;-74
2023/04/23 09:14:32;;;;;;;;;;;12.50;99.90;;;;;;5002359;28;20458;-74
2023/04/23 09:17:07;;;;;;;;;;;12.60;99.90;;;;;;4994513;28;19933;-76
2023/04/23 09:19:45;;;;;;;;;;;12.50;99.90;;;;;;4999567;28;19933;-77
2023/04/23 09:22:12;;;;;;;;;;;12.50;99.90;;;;;;4994411;28;19969;-76
2023/04/23 09:24:42;;;;;;;;;;;12.50;99.90;;;;;;4992138;28;20036;-76
2023/04/23 09:27:09;;;;;;;;;;;12.60;99.90;;;;;;4989295;28;22048;-76
2023/04/23 09:29:36;;;;;;;;;;;12.60;99.90;;;;;;4995447;28;20029;-76
2023/04/23 09:32:06;;;;;;;;;;;12.60;99.90;;;;;;4993830;28;19930;-76
2023/04/23 09:34:34;;;;;;;;;;;12.60;99.90;;;;;;5000592;28;19968;-75
2023/04/23 09:37:02;;;;;;;;;;;12.60;99.90;;;;;;5005211;28;19926;-75
2023/04/23 09:39:29;;;;;;;;;;;12.60;99.90;;;;;;5002566;28;20015;-78
2023/04/23 09:42:02;;;;;;;;;;;12.60;99.90;;;;;;4998667;28;19926;-77
2023/04/23 09:44:31;;;;;;;;;;;12.60;99.90;;;;;;4997858;28;20379;-75
2023/04/23 09:47:05;;;;;;;;;;;12.60;99.90;;;;;;4999727;28;19926;-76
2023/04/23 09:49:44;;;;;;;;;;;12.70;99.90;;;;;;5003156;28;19925;-76
2023/04/23 09:52:11;;;;;;;;;;;12.70;99.90;;;;;;4992047;28;20391;-75
2023/04/23 09:54:38;;;;;;;;;;;12.70;99.90;;;;;;4995318;28;20417;-75
2023/04/23 09:57:07;;;;;;;;;;;12.70;99.90;;;;;;5000027;28;19925;-76
2023/04/23 09:59:35;;;;;;;;;;;12.70;99.90;;;;;;4995471;28;20356;-75
2023/04/23 10:02:02;;;;;;;;;;;12.70;99.90;;;;;;4998329;28;19930;-75
2023/04/23 10:04:29;;;;;;;;;;;12.70;99.90;;;;;;5000910;28;19976;-75
2023/04/23 10:09:48;;;;;;;;;;;12.80;99.90;;;;;;4995158;28;19933;-75
2023/04/23 10:12:15;;;;;;;;;;;12.80;99.90;;;;;;4998355;28;20023;-75
2023/04/23 10:14:43;;;;;;;;;;;12.80;99.90;;;;;;4982701;28;19926;-75
2023/04/23 10:17:10;;;;;;;;;;;12.80;99.90;;;;;;5000462;28;19929;-75
2023/04/23 10:19:39;;;;;;;;;;;12.80;99.90;;;;;;4998756;28;19933;-75
2023/04/23 10:22:10;;;;;;;;;;;12.80;99.90;;;;;;4998558;28;19934;-75
2023/04/23 10:24:40;;;;;;;;;;;12.90;99.90;;;;;;4997536;28;19929;-76
2023/04/23 10:27:10;;;;;;;;;;;12.90;99.90;;;;;;5001161;28;19986;-76
2023/04/23 10:29:38;;;;;;;;;;;12.90;99.90;;;;;;4990964;28;20020;-75
2023/04/23 10:32:06;;;;;;;;;;;13.00;99.90;;;;;;4995409;28;19952;-77
2023/04/23 10:34:33;;;;;;;;;;;13.00;99.90;;;;;;5004308;28;20687;-75
2023/04/23 10:37:00;;;;;;;;;;;13.00;99.90;;;;;;5000260;28;19940;-75
2023/04/23 10:39:30;;;;;;;;;;;13.00;99.90;;;;;;4998430;28;20388;-75
2023/04/23 10:41:58;;;;;;;;;;;13.00;99.90;;;;;;5000710;28;19968;-76
2023/04/23 10:44:31;;;;;;;;;;;13.10;99.90;;;;;;5002257;28;20400;-75
2023/04/23 10:47:00;;;;;;;;;;;13.10;99.90;;;;;;5002298;28;20399;-76
2023/04/23 10:49:30;;;;;;;;;;;13.10;99.90;;;;;;5000239;28;19932;-76
2023/04/23 10:52:00;;;;;;;;;;;13.10;99.90;;;;;;5004005;28;19932;-75
2023/04/23 10:54:32;;;;;;;;;;;13.10;99.90;;;;;;4983886;28;20428;-75
2023/04/23 10:57:01;;;;;;;;;;;13.20;99.90;;;;;;5001980;28;19930;-75
2023/04/23 10:59:29;;;;;;;;;;;13.20;99.90;;;;;;4998600;28;19926;-75
2023/04/23 11:01:58;;;;;;;;;;;13.30;99.90;;;;;;5002453;28;20015;-76
2023/04/23 11:04:26;;;;;;;;;;;13.30;99.90;;;;;;5002766;28;20048;-75
2023/04/23 11:06:54;;;;;;;;;;;13.20;99.90;;;;;;5001062;28;19969;-74
2023/04/23 11:09:28;;;;;;;;;;;13.30;99.90;;;;;;4989080;28;19926;-75
2023/04/23 11:11:56;;;;;;;;;;;13.30;99.90;;;;;;5005196;28;19988;-75
2023/04/23 11:14:34;;;;;;;;;;;13.30;99.90;;;;;;4998888;28;20019;-73
2023/04/23 11:17:01;;;;;;;;;;;13.40;99.90;;;;;;4980798;28;19926;-76
2023/04/23 11:19:30;;;;;;;;;;;13.40;99.90;;;;;;4983998;28;19930;-75
2023/04/23 11:21:58;;;;;;;;;;;13.40;99.90;;;;;;5003942;28;20398;-76
2023/04/23 11:24:26;;;;;;;;;;;13.50;99.90;;;;;;5001810;28;20319;-75
2023/04/23 11:26:53;;;;;;;;;;;13.50;99.90;;;;;;5003291;28;20007;-75
2023/04/23 11:29:23;;;;;;;;;;;13.50;99.90;;;;;;5000000;28;19932;-76
2023/04/23 11:31:52;;;;;;;;;;;13.50;99.90;;;;;;5002215;28;20307;-76
2023/04/23 11:34:19;;;;;;;;;;;13.60;99.90;;;;;;5001890;28;19976;-75
2023/04/23 11:36:48;;;;;;;;;;;13.60;99.90;;;;;;5005093;28;19929;-76
2023/04/23 11:39:15;;;;;;;;;;;13.60;99.90;;;;;;5001191;28;19925;-76
2023/04/23 11:41:42;;;;;;;;;;;13.60;99.90;;;;;;4999204;28;19930;-77
2023/04/23 11:44:10;;;;;;;;;;;13.60;99.90;;;;;;5004887;28;20606;-75
2023/04/23 11:46:38;;;;;;;;;;;13.60;99.90;;;;;;5005735;28;19930;-76
2023/04/23 11:49:08;;;;;;;;;;;13.70;99.90;;;;;;5000147;28;20303;-75
2023/04/23 11:51:35;;;;;;;;;;;13.80;99.90;;;;;;4976822;28;19933;-75
2023/04/23 11:54:03;;;;;;;;;;;13.80;99.90;;;;;;5004698;28;19930;-76
2023/04/23 11:56:30;;;;;;;;;;;13.90;99.90;;;;;;5000796;28;20024;-75
2023/04/23 11:59:02;;;;;;;;;;;13.80;99.90;;;;;;5003010;28;19936;-75
2023/04/23 12:01:41;;;;;;;;;;;13.90;99.90;;;;;;4994812;28;19937;-75
2023/04/23 12:04:12;;;;;;;;;;;13.90;99.90;;;;;;5001940;28;19940;-75
2023/04/23 12:06:41;;;;;;;;;;;13.90;99.90;;;;;;5002574;28;19944;-75
2023/04/23 12:09:08;;;;;;;;;;;14.00;99.90;;;;;;5002117;28;20423;-77
2023/04/23 12:11:35;;;;;;;;;;;14.00;99.90;;;;;;4997824;28;21077;-76
2023/04/23 12:14:02;;;;;;;;;;;14.00;99.90;;;;;;5002726;28;19975;-76
2023/04/23 12:16:36;;;;;;;;;;;14.00;99.90;;;;;;5004503;28;19972;-76
2023/04/23 12:19:07;;;;;;;;;;;14.10;99.90;;;;;;4997470;28;19969;-76
2023/04/23 12:21:34;;;;;;;;;;;14.10;99.90;;;;;;5000867;28;20024;-76
2023/04/23 12:24:03;;;;;;;;;;;14.10;99.90;;;;;;4997448;28;19930;-76
2023/04/23 12:26:30;;;;;;;;;;;14.10;99.90;;;;;;5004058;28;19925;-76
2023/04/23 12:28:59;;;;;;;;;;;14.20;99.90;;;;;;5000301;28;20277;-77
2023/04/23 12:31:26;;;;;;;;;;;14.20;99.90;;;;;;5002067;28;20106;-75
2023/04/23 12:33:57;;;;;;;;;;;14.30;99.90;;;;;;4983940;28;19988;-76
2023/04/23 12:36:28;;;;;;;;;;;14.30;99.90;;;;;;5001356;28;19957;-75
2023/04/23 12:38:55;;;;;;;;;;;14.40;99.90;;;;;;4984551;28;20303;-75
2023/04/23 12:41:21;;;;;;;;;;;14.40;99.90;;;;;;4998838;28;19940;-75
2023/04/23 12:43:50;;;;;;;;;;;14.40;99.90;;;;;;4996236;28;20308;-77
2023/04/23 12:46:16;;;;;;;;;;;14.40;99.90;;;;;;4995598;28;20015;-77
2023/04/23 12:48:43;;;;;;;;;;;14.50;99.90;;;;;;5003124;28;20413;-75
2023/04/23 12:51:10;;;;;;;;;;;14.50;99.90;;;;;;5004340;28;19960;-77
2023/04/23 12:53:38;;;;;;;;;;;14.50;99.90;;;;;;5003268;28;19934;-76
2023/04/23 12:56:05;;;;;;;;;;;14.50;99.90;;;;;;4996980;28;19929;-75
2023/04/23 12:58:32;;;;;;;;;;;14.60;99.90;;;;;;4999822;28;19996;-76
2023/04/23 13:00:59;;;;;;;;;;;14.60;99.90;;;;;;5005931;28;19925;-76
2023/04/23 13:03:26;;;;;;;;;;;14.60;99.90;;;;;;5002325;28;19964;-76
2023/04/23 13:05:53;;;;;;;;;;;14.70;99.90;;;;;;5003546;28;20029;-76
2023/04/23 13:08:19;;;;;;;;;;;14.70;99.90;;;;;;5002497;28;19961;-76
2023/04/23 13:10:48;;;;;;;;;;;14.80;99.90;;;;;;4982728;28;19932;-75
2023/04/23 13:13:15;;;;;;;;;;;14.80;99.90;;;;;;4981858;28;19933;-76
2023/04/23 13:15:42;;;;;;;;;;;14.90;99.90;;;;;;5004070;28;19982;-75
2023/04/23 13:18:09;;;;;;;;;;;14.80;99.90;;;;;;5002794;28;19933;-76
2023/04/23 13:20:36;;;;;;;;;;;14.90;99.90;;;;;;4998869;28;20419;-76
2023/04/23 13:23:03;;;;;;;;;;;15.00;99.90;;;;;;4999504;28;19952;-76
2023/04/23 13:25:30;;;;;;;;;;;15.10;99.90;;;;;;5002128;28;19934;-76
2023/04/23 13:27:58;;;;;;;;;;;15.10;99.90;;;;;;4999817;28;20447;-75
2023/04/23 13:30:28;;;;;;;;;;;15.20;99.90;;;;;;4994979;28;19933;-75
2023/04/23 13:32:56;;;;;;;;;;;15.30;99.90;;;;;;5001585;28;19932;-76
2023/04/23 13:35:23;;;;;;;;;;;15.40;99.90;;;;;;5000609;28;20016;-76
2023/04/23 13:37:50;;;;;;;;;;;15.40;99.90;;;;;;4998117;28;20016;-76
2023/04/23 13:40:17;;;;;;;;;;;15.50;99.90;;;;;;4979785;28;19929;-77
2023/04/23 13:42:44;;;;;;;;;;;15.50;99.90;;;;;;4997896;28;19925;-76
2023/04/23 13:45:15;;;;;;;;;;;15.50;99.90;;;;;;4988486;28;20068;-78
2023/04/23 13:47:42;;;;;;;;;;;15.60;99.90;;;;;;4993427;28;19980;-76
2023/04/23 13:50:09;;;;;;;;;;;15.60;99.90;;;;;;4987944;28;19932;-76
2023/04/23 13:52:38;;;;;;;;;;;15.70;99.90;;;;;;5000770;28;20486;-76
2023/04/23 13:55:07;;;;;;;;;;;15.60;99.90;;;;;;4983467;28;19943;-76
2023/04/23 13:57:34;;;;;;;;;;;15.60;99.90;;;;;;5000276;28;20395;-79
2023/04/23 14:00:02;;;;;;;;;;;15.70;99.90;;;;;;4998141;28;19925;-77
2023/04/23 14:02:32;;;;;;;;;;;15.90;99.90;;;;;;4997928;28;19925;-76
2023/04/23 14:05:02;;;;;;;;;;;16.00;99.90;;;;;;4998884;28;19972;-76
2023/04/23 14:07:29;;;;;;;;;;;16.00;99.90;;;;;;5000139;28;19925;-77
2023/04/23 14:09:56;;;;;;;;;;;16.20;99.90;;;;;;4993623;28;20669;-76
2023/04/23 14:12:25;;;;;;;;;;;16.20;99.90;;;;;;4986061;28;19977;-76
2023/04/23 14:14:51;;;;;;;;;;;16.20;99.90;;;;;;4998888;28;20399;-76
2023/04/23 14:17:18;;;;;;;;;;;16.20;99.90;;;;;;5000546;28;19930;-76
2023/04/23 14:19:47;;;;;;;;;;;16.20;99.90;;;;;;4998014;28;19997;-77
2023/04/23 14:22:14;;;;;;;;;;;16.20;99.90;;;;;;4995273;28;19930;-76
2023/04/23 14:24:45;;;;;;;;;;;16.20;99.90;;;;;;5000282;28;19999;-78
2023/04/23 14:27:12;;;;;;;;;;;16.20;99.90;;;;;;5002522;28;19980;-77